sensor_id;sensor_type;location;lat;lon;timestamp;P1;durP1;ratioP1;P2;durP2;ratioP2
21979;SDS011;11154;48.558;9.234;2023-07-30T00:01:23;3.42;;;2.60;;
21979;SDS011;11154;48.558;9.234;2023-07-30T00:03:25;3.88;;;2.67;;
21979;SDS011;11154;48.558;9.234;2023-07-30T00:05:26;3.67;;;2.40;;
21979;SDS011;11154;48.558;9.234;2023-07-30T00:07:28;2.90;;;2.38;;
21979;SDS011;11154;48.558;9.234;2023-07-30T00:09:29;3.63;;;2.83;;
21979;SDS011;11154;48.558;9.234;2023-07-30T00:11:32;5.60;;;2.90;;
21979;SDS011;11154;48.558;9.234;2023-07-30T00:13:33;4.70;;;2.53;;
21979;SDS011;11154;48.558;9.234;2023-07-30T00:15:34;3.35;;;2.13;;
21979;SDS011;11154;48.558;9.234;2023-07-30T00:17:36;3.78;;;2.65;;
21979;SDS011;11154;48.558;9.234;2023-07-30T00:19:38;3.20;;;2.60;;
21979;SDS011;11154;48.558;9.234;2023-07-30T00:21:39;2.90;;;2.60;;
21979;SDS011;11154;48.558;9.234;2023-07-30T00:23:43;3.33;;;2.58;;
21979;SDS011;11154;48.558;9.234;2023-07-30T00:25:45;2.92;;;2.60;;
21979;SDS011;11154;48.558;9.234;2023-07-30T00:27:48;5.45;;;2.65;;
21979;SDS011;11154;48.558;9.234;2023-07-30T00:29:49;3.33;;;2.30;;
21979;SDS011;11154;48.558;9.234;2023-07-30T00:31:51;3.47;;;2.63;;
21979;SDS011;11154;48.558;9.234;2023-07-30T00:33:52;4.45;;;2.58;;
21979;SDS011;11154;48.558;9.234;2023-07-30T00:35:53;2.70;;;2.40;;
21979;SDS011;11154;48.558;9.234;2023-07-30T00:37:55;2.50;;;2.20;;
21979;SDS011;11154;48.558;9.234;2023-07-30T00:39:56;3.20;;;2.20;;
21979;SDS011;11154;48.558;9.234;2023-07-30T00:41:58;3.67;;;2.10;;
21979;SDS011;11154;48.558;9.234;2023-07-30T00:44:00;5.88;;;2.53;;
21979;SDS011;11154;48.558;9.234;2023-07-30T00:46:03;5.82;;;2.80;;
21979;SDS011;11154;48.558;9.234;2023-07-30T00:48:05;5.75;;;2.40;;
21979;SDS011;11154;48.558;9.234;2023-07-30T00:50:07;6.10;;;2.53;;
21979;SDS011;11154;48.558;9.234;2023-07-30T00:52:09;2.58;;;2.25;;
21979;SDS011;11154;48.558;9.234;2023-07-30T00:54:11;6.80;;;2.80;;
21979;SDS011;11154;48.558;9.234;2023-07-30T00:56:13;6.03;;;2.50;;
21979;SDS011;11154;48.558;9.234;2023-07-30T00:58:16;4.03;;;2.35;;
21979;SDS011;11154;48.558;9.234;2023-07-30T01:00:21;2.97;;;2.17;;
21979;SDS011;11154;48.558;9.234;2023-07-30T01:02:24;3.25;;;2.30;;
21979;SDS011;11154;48.558;9.234;2023-07-30T01:04:27;5.63;;;2.75;;
21979;SDS011;11154;48.558;9.234;2023-07-30T01:06:28;5.03;;;2.65;;
21979;SDS011;11154;48.558;9.234;2023-07-30T01:08:29;4.88;;;2.92;;
21979;SDS011;11154;48.558;9.234;2023-07-30T01:10:31;5.75;;;2.53;;
21979;SDS011;11154;48.558;9.234;2023-07-30T01:12:33;3.42;;;2.50;;
21979;SDS011;11154;48.558;9.234;2023-07-30T01:14:37;3.63;;;2.53;;
21979;SDS011;11154;48.558;9.234;2023-07-30T01:16:40;2.38;;;2.05;;
21979;SDS011;11154;48.558;9.234;2023-07-30T01:18:42;4.25;;;2.67;;
21979;SDS011;11154;48.558;9.234;2023-07-30T01:20:43;6.53;;;2.42;;
21979;SDS011;11154;48.558;9.234;2023-07-30T01:22:46;3.88;;;2.30;;
21979;SDS011;11154;48.558;9.234;2023-07-30T01:24:48;4.90;;;2.30;;
21979;SDS011;11154;48.558;9.234;2023-07-30T01:26:51;3.15;;;2.20;;
21979;SDS011;11154;48.558;9.234;2023-07-30T01:28:56;3.65;;;2.10;;
21979;SDS011;11154;48.558;9.234;2023-07-30T01:31:02;2.53;;;1.90;;
21979;SDS011;11154;48.558;9.234;2023-07-30T01:33:04;2.50;;;1.90;;
21979;SDS011;11154;48.558;9.234;2023-07-30T01:35:07;3.95;;;1.98;;
21979;SDS011;11154;48.558;9.234;2023-07-30T01:37:11;2.10;;;1.90;;
21979;SDS011;11154;48.558;9.234;2023-07-30T01:39:14;1.92;;;1.77;;
21979;SDS011;11154;48.558;9.234;2023-07-30T01:41:16;2.53;;;2.22;;
21979;SDS011;11154;48.558;9.234;2023-07-30T01:43:17;2.20;;;2.00;;
21979;SDS011;11154;48.558;9.234;2023-07-30T01:45:18;2.47;;;2.00;;
21979;SDS011;11154;48.558;9.234;2023-07-30T01:47:20;3.03;;;2.13;;
21979;SDS011;11154;48.558;9.234;2023-07-30T01:49:22;2.60;;;2.00;;
21979;SDS011;11154;48.558;9.234;2023-07-30T01:51:23;2.45;;;2.03;;
21979;SDS011;11154;48.558;9.234;2023-07-30T01:53:25;5.88;;;2.00;;
21979;SDS011;11154;48.558;9.234;2023-07-30T01:55:28;4.10;;;2.00;;
21979;SDS011;11154;48.558;9.234;2023-07-30T01:57:29;2.03;;;1.80;;
21979;SDS011;11154;48.558;9.234;2023-07-30T01:59:31;3.20;;;1.95;;
21979;SDS011;11154;48.558;9.234;2023-07-30T02:01:32;1.90;;;1.70;;
21979;SDS011;11154;48.558;9.234;2023-07-30T02:03:34;3.05;;;2.10;;
21979;SDS011;11154;48.558;9.234;2023-07-30T02:05:35;4.30;;;2.00;;
21979;SDS011;11154;48.558;9.234;2023-07-30T02:07:37;3.28;;;1.92;;
21979;SDS011;11154;48.558;9.234;2023-07-30T02:09:37;2.17;;;1.98;;
21979;SDS011;11154;48.558;9.234;2023-07-30T02:11:41;2.67;;;2.10;;
21979;SDS011;11154;48.558;9.234;2023-07-30T02:13:42;3.80;;;1.90;;
21979;SDS011;11154;48.558;9.234;2023-07-30T02:15:44;3.08;;;2.17;;
21979;SDS011;11154;48.558;9.234;2023-07-30T02:17:44;4.32;;;1.90;;
21979;SDS011;11154;48.558;9.234;2023-07-30T02:19:46;3.30;;;2.00;;
21979;SDS011;11154;48.558;9.234;2023-07-30T02:21:48;2.00;;;1.80;;
21979;SDS011;11154;48.558;9.234;2023-07-30T02:23:49;2.38;;;2.17;;
21979;SDS011;11154;48.558;9.234;2023-07-30T02:25:51;4.13;;;2.05;;
21979;SDS011;11154;48.558;9.234;2023-07-30T02:27:54;2.00;;;1.63;;
21979;SDS011;11154;48.558;9.234;2023-07-30T02:29:54;3.88;;;1.83;;
21979;SDS011;11154;48.558;9.234;2023-07-30T02:31:56;3.25;;;1.92;;
21979;SDS011;11154;48.558;9.234;2023-07-30T02:33:56;3.17;;;1.80;;
21979;SDS011;11154;48.558;9.234;2023-07-30T02:35:58;6.90;;;2.30;;
21979;SDS011;11154;48.558;9.234;2023-07-30T02:37:59;3.22;;;2.00;;
21979;SDS011;11154;48.558;9.234;2023-07-30T02:40:01;3.05;;;1.90;;
21979;SDS011;11154;48.558;9.234;2023-07-30T02:42:05;6.60;;;1.88;;
21979;SDS011;11154;48.558;9.234;2023-07-30T02:44:07;2.10;;;1.77;;
21979;SDS011;11154;48.558;9.234;2023-07-30T02:46:08;2.38;;;1.75;;
21979;SDS011;11154;48.558;9.234;2023-07-30T02:48:10;3.92;;;1.88;;
21979;SDS011;11154;48.558;9.234;2023-07-30T02:50:12;2.00;;;1.80;;
21979;SDS011;11154;48.558;9.234;2023-07-30T02:52:13;2.97;;;1.90;;
21979;SDS011;11154;48.558;9.234;2023-07-30T02:54:15;2.70;;;1.85;;
21979;SDS011;11154;48.558;9.234;2023-07-30T02:56:17;4.28;;;2.00;;
21979;SDS011;11154;48.558;9.234;2023-07-30T02:58:18;4.90;;;1.90;;
21979;SDS011;11154;48.558;9.234;2023-07-30T03:00:20;3.88;;;2.03;;
21979;SDS011;11154;48.558;9.234;2023-07-30T03:02:22;2.85;;;1.90;;
21979;SDS011;11154;48.558;9.234;2023-07-30T03:04:23;3.53;;;2.35;;
21979;SDS011;11154;48.558;9.234;2023-07-30T03:06:24;6.07;;;2.53;;
21979;SDS011;11154;48.558;9.234;2023-07-30T03:08:26;3.17;;;2.30;;
21979;SDS011;11154;48.558;9.234;2023-07-30T03:10:27;5.22;;;2.13;;
21979;SDS011;11154;48.558;9.234;2023-07-30T03:12:29;3.97;;;2.42;;
21979;SDS011;11154;48.558;9.234;2023-07-30T03:14:30;2.72;;;2.22;;
21979;SDS011;11154;48.558;9.234;2023-07-30T03:16:33;2.38;;;2.00;;
21979;SDS011;11154;48.558;9.234;2023-07-30T03:18:35;2.90;;;2.08;;
21979;SDS011;11154;48.558;9.234;2023-07-30T03:20:36;2.60;;;2.10;;
21979;SDS011;11154;48.558;9.234;2023-07-30T03:22:38;2.25;;;2.05;;
21979;SDS011;11154;48.558;9.234;2023-07-30T03:24:39;2.55;;;2.00;;
21979;SDS011;11154;48.558;9.234;2023-07-30T03:26:41;2.13;;;1.80;;
21979;SDS011;11154;48.558;9.234;2023-07-30T03:28:43;4.68;;;2.10;;
21979;SDS011;11154;48.558;9.234;2023-07-30T03:30:44;4.30;;;1.67;;
21979;SDS011;11154;48.558;9.234;2023-07-30T03:32:46;3.63;;;1.90;;
21979;SDS011;11154;48.558;9.234;2023-07-30T03:34:48;1.83;;;1.70;;
21979;SDS011;11154;48.558;9.234;2023-07-30T03:36:49;2.40;;;1.67;;
21979;SDS011;11154;48.558;9.234;2023-07-30T03:38:51;4.63;;;2.03;;
21979;SDS011;11154;48.558;9.234;2023-07-30T03:40:52;2.55;;;1.92;;
21979;SDS011;11154;48.558;9.234;2023-07-30T03:42:54;4.72;;;2.15;;
21979;SDS011;11154;48.558;9.234;2023-07-30T03:44:55;3.75;;;2.35;;
21979;SDS011;11154;48.558;9.234;2023-07-30T03:46:57;4.25;;;2.00;;
21979;SDS011;11154;48.558;9.234;2023-07-30T03:49:00;3.47;;;1.95;;
21979;SDS011;11154;48.558;9.234;2023-07-30T03:51:02;2.47;;;1.85;;
21979;SDS011;11154;48.558;9.234;2023-07-30T03:53:04;3.85;;;1.85;;
21979;SDS011;11154;48.558;9.234;2023-07-30T03:55:05;4.78;;;1.50;;
21979;SDS011;11154;48.558;9.234;2023-07-30T03:57:07;2.15;;;1.92;;
21979;SDS011;11154;48.558;9.234;2023-07-30T03:59:08;1.90;;;1.75;;
21979;SDS011;11154;48.558;9.234;2023-07-30T04:01:10;2.67;;;2.10;;
21979;SDS011;11154;48.558;9.234;2023-07-30T04:03:11;3.65;;;2.00;;
21979;SDS011;11154;48.558;9.234;2023-07-30T04:05:14;2.88;;;1.90;;
21979;SDS011;11154;48.558;9.234;2023-07-30T04:07:16;2.72;;;2.10;;
21979;SDS011;11154;48.558;9.234;2023-07-30T04:09:17;2.13;;;1.90;;
21979;SDS011;11154;48.558;9.234;2023-07-30T04:11:19;2.50;;;1.83;;
21979;SDS011;11154;48.558;9.234;2023-07-30T04:13:21;2.17;;;1.90;;
21979;SDS011;11154;48.558;9.234;2023-07-30T04:15:22;2.15;;;1.77;;
21979;SDS011;11154;48.558;9.234;2023-07-30T04:17:24;2.20;;;1.80;;
21979;SDS011;11154;48.558;9.234;2023-07-30T04:19:25;2.20;;;1.73;;
21979;SDS011;11154;48.558;9.234;2023-07-30T04:21:28;1.95;;;1.83;;
21979;SDS011;11154;48.558;9.234;2023-07-30T04:23:30;3.22;;;1.92;;
21979;SDS011;11154;48.558;9.234;2023-07-30T04:25:31;10.50;;;2.00;;
21979;SDS011;11154;48.558;9.234;2023-07-30T04:27:33;2.90;;;1.85;;
21979;SDS011;11154;48.558;9.234;2023-07-30T04:29:34;4.00;;;1.77;;
21979;SDS011;11154;48.558;9.234;2023-07-30T04:31:36;2.17;;;1.85;;
21979;SDS011;11154;48.558;9.234;2023-07-30T04:33:37;2.25;;;1.75;;
21979;SDS011;11154;48.558;9.234;2023-07-30T04:35:39;2.33;;;1.80;;
21979;SDS011;11154;48.558;9.234;2023-07-30T04:37:42;4.05;;;1.92;;
21979;SDS011;11154;48.558;9.234;2023-07-30T04:39:44;3.38;;;2.15;;
21979;SDS011;11154;48.558;9.234;2023-07-30T04:41:46;2.30;;;1.80;;
21979;SDS011;11154;48.558;9.234;2023-07-30T04:43:47;2.25;;;2.05;;
21979;SDS011;11154;48.558;9.234;2023-07-30T04:45:48;1.95;;;1.75;;
21979;SDS011;11154;48.558;9.234;2023-07-30T04:47:49;5.80;;;2.10;;
21979;SDS011;11154;48.558;9.234;2023-07-30T04:49:50;2.40;;;2.08;;
21979;SDS011;11154;48.558;9.234;2023-07-30T04:51:51;4.55;;;1.98;;
21979;SDS011;11154;48.558;9.234;2023-07-30T04:53:53;5.88;;;2.00;;
21979;SDS011;11154;48.558;9.234;2023-07-30T04:55:55;3.85;;;1.83;;
21979;SDS011;11154;48.558;9.234;2023-07-30T04:57:57;1.67;;;1.58;;
21979;SDS011;11154;48.558;9.234;2023-07-30T04:59:59;2.10;;;1.90;;
21979;SDS011;11154;48.558;9.234;2023-07-30T05:02:03;3.50;;;2.10;;
21979;SDS011;11154;48.558;9.234;2023-07-30T05:04:04;2.38;;;1.90;;
21979;SDS011;11154;48.558;9.234;2023-07-30T05:06:06;3.65;;;2.00;;
21979;SDS011;11154;48.558;9.234;2023-07-30T05:08:07;2.42;;;1.80;;
21979;SDS011;11154;48.558;9.234;2023-07-30T05:10:10;1.77;;;1.65;;
21979;SDS011;11154;48.558;9.234;2023-07-30T05:12:12;2.38;;;1.85;;
21979;SDS011;11154;48.558;9.234;2023-07-30T05:14:14;1.98;;;1.60;;
21979;SDS011;11154;48.558;9.234;2023-07-30T05:16:15;3.67;;;2.00;;
21979;SDS011;11154;48.558;9.234;2023-07-30T05:18:16;2.10;;;1.52;;
21979;SDS011;11154;48.558;9.234;2023-07-30T05:20:17;2.08;;;1.77;;
21979;SDS011;11154;48.558;9.234;2023-07-30T05:22:19;3.03;;;1.92;;
21979;SDS011;11154;48.558;9.234;2023-07-30T05:24:20;2.53;;;1.83;;
21979;SDS011;11154;48.558;9.234;2023-07-30T05:26:23;4.05;;;2.25;;
21979;SDS011;11154;48.558;9.234;2023-07-30T05:28:25;2.38;;;1.77;;
21979;SDS011;11154;48.558;9.234;2023-07-30T05:30:27;2.30;;;1.90;;
21979;SDS011;11154;48.558;9.234;2023-07-30T05:32:28;2.03;;;1.83;;
21979;SDS011;11154;48.558;9.234;2023-07-30T05:34:30;5.18;;;1.90;;
21979;SDS011;11154;48.558;9.234;2023-07-30T05:36:30;3.92;;;1.85;;
21979;SDS011;11154;48.558;9.234;2023-07-30T05:38:32;2.95;;;1.83;;
21979;SDS011;11154;48.558;9.234;2023-07-30T05:40:34;2.42;;;1.77;;
21979;SDS011;11154;48.558;9.234;2023-07-30T05:42:38;2.10;;;1.73;;
21979;SDS011;11154;48.558;9.234;2023-07-30T05:44:39;3.25;;;1.88;;
21979;SDS011;11154;48.558;9.234;2023-07-30T05:46:41;2.58;;;2.25;;
21979;SDS011;11154;48.558;9.234;2023-07-30T05:48:43;3.40;;;1.98;;
21979;SDS011;11154;48.558;9.234;2023-07-30T05:50:44;3.13;;;1.83;;
21979;SDS011;11154;48.558;9.234;2023-07-30T05:52:46;2.95;;;2.35;;
21979;SDS011;11154;48.558;9.234;2023-07-30T05:54:47;4.10;;;1.80;;
21979;SDS011;11154;48.558;9.234;2023-07-30T05:56:49;2.55;;;1.95;;
21979;SDS011;11154;48.558;9.234;2023-07-30T05:58:52;2.42;;;2.20;;
21979;SDS011;11154;48.558;9.234;2023-07-30T06:00:53;2.33;;;2.08;;
21979;SDS011;11154;48.558;9.234;2023-07-30T06:02:55;4.00;;;2.17;;
21979;SDS011;11154;48.558;9.234;2023-07-30T06:04:57;6.38;;;2.20;;
21979;SDS011;11154;48.558;9.234;2023-07-30T06:06:59;4.18;;;2.33;;
21979;SDS011;11154;48.558;9.234;2023-07-30T06:09:01;2.00;;;1.80;;
21979;SDS011;11154;48.558;9.234;2023-07-30T06:11:03;3.03;;;1.92;;
21979;SDS011;11154;48.558;9.234;2023-07-30T06:13:04;2.47;;;1.77;;
21979;SDS011;11154;48.558;9.234;2023-07-30T06:15:09;2.17;;;1.85;;
21979;SDS011;11154;48.558;9.234;2023-07-30T06:17:10;2.13;;;1.92;;
21979;SDS011;11154;48.558;9.234;2023-07-30T06:19:13;2.10;;;1.90;;
21979;SDS011;11154;48.558;9.234;2023-07-30T06:21:14;5.32;;;2.25;;
21979;SDS011;11154;48.558;9.234;2023-07-30T06:23:16;3.10;;;2.15;;
21979;SDS011;11154;48.558;9.234;2023-07-30T06:25:17;2.40;;;2.08;;
21979;SDS011;11154;48.558;9.234;2023-07-30T06:27:19;2.28;;;2.05;;
21979;SDS011;11154;48.558;9.234;2023-07-30T06:29:20;2.47;;;1.88;;
21979;SDS011;11154;48.558;9.234;2023-07-30T06:31:23;1.80;;;1.70;;
21979;SDS011;11154;48.558;9.234;2023-07-30T06:33:25;4.18;;;2.20;;
21979;SDS011;11154;48.558;9.234;2023-07-30T06:35:25;4.53;;;2.15;;
21979;SDS011;11154;48.558;9.234;2023-07-30T06:37:27;2.00;;;1.80;;
21979;SDS011;11154;48.558;9.234;2023-07-30T06:39:29;2.72;;;2.13;;
21979;SDS011;11154;48.558;9.234;2023-07-30T06:41:30;2.85;;;2.03;;
21979;SDS011;11154;48.558;9.234;2023-07-30T06:43:32;2.08;;;1.77;;
21979;SDS011;11154;48.558;9.234;2023-07-30T06:45:33;2.10;;;1.65;;
21979;SDS011;11154;48.558;9.234;2023-07-30T06:47:36;2.95;;;1.80;;
21979;SDS011;11154;48.558;9.234;2023-07-30T06:49:38;4.57;;;1.83;;
21979;SDS011;11154;48.558;9.234;2023-07-30T06:51:39;3.05;;;2.08;;
21979;SDS011;11154;48.558;9.234;2023-07-30T06:53:41;2.58;;;2.20;;
21979;SDS011;11154;48.558;9.234;2023-07-30T06:55:41;2.65;;;2.20;;
21979;SDS011;11154;48.558;9.234;2023-07-30T06:57:43;4.03;;;2.30;;
21979;SDS011;11154;48.558;9.234;2023-07-30T06:59:45;2.58;;;2.03;;
21979;SDS011;11154;48.558;9.234;2023-07-30T07:01:47;4.10;;;2.10;;
21979;SDS011;11154;48.558;9.234;2023-07-30T07:03:50;2.95;;;2.05;;
21979;SDS011;11154;48.558;9.234;2023-07-30T07:05:52;2.88;;;2.00;;
21979;SDS011;11154;48.558;9.234;2023-07-30T07:07:53;3.05;;;1.80;;
21979;SDS011;11154;48.558;9.234;2023-07-30T07:09:55;3.58;;;1.98;;
21979;SDS011;11154;48.558;9.234;2023-07-30T07:11:56;3.67;;;2.05;;
21979;SDS011;11154;48.558;9.234;2023-07-30T07:13:58;2.15;;;1.90;;
21979;SDS011;11154;48.558;9.234;2023-07-30T07:15:59;2.97;;;1.85;;
21979;SDS011;11154;48.558;9.234;2023-07-30T07:18:01;4.78;;;1.83;;
21979;SDS011;11154;48.558;9.234;2023-07-30T07:20:05;2.53;;;1.85;;
21979;SDS011;11154;48.558;9.234;2023-07-30T07:22:07;2.35;;;1.67;;
21979;SDS011;11154;48.558;9.234;2023-07-30T07:24:08;2.67;;;1.60;;
21979;SDS011;11154;48.558;9.234;2023-07-30T07:26:10;3.33;;;1.67;;
21979;SDS011;11154;48.558;9.234;2023-07-30T07:28:11;3.58;;;1.75;;
21979;SDS011;11154;48.558;9.234;2023-07-30T07:30:13;2.35;;;1.70;;
21979;SDS011;11154;48.558;9.234;2023-07-30T07:32:14;2.25;;;1.60;;
21979;SDS011;11154;48.558;9.234;2023-07-30T07:34:15;4.13;;;1.70;;
21979;SDS011;11154;48.558;9.234;2023-07-30T07:36:18;1.80;;;1.55;;
21979;SDS011;11154;48.558;9.234;2023-07-30T07:38:19;3.28;;;1.88;;
21979;SDS011;11154;48.558;9.234;2023-07-30T07:40:21;5.22;;;1.85;;
21979;SDS011;11154;48.558;9.234;2023-07-30T07:42:23;2.78;;;1.10;;
21979;SDS011;11154;48.558;9.234;2023-07-30T07:44:23;3.05;;;1.48;;
21979;SDS011;11154;48.558;9.234;2023-07-30T07:46:25;4.65;;;1.40;;
21979;SDS011;11154;48.558;9.234;2023-07-30T07:48:27;2.95;;;1.58;;
21979;SDS011;11154;48.558;9.234;2023-07-30T07:50:29;1.65;;;1.10;;
21979;SDS011;11154;48.558;9.234;2023-07-30T07:52:31;1.73;;;1.00;;
21979;SDS011;11154;48.558;9.234;2023-07-30T07:54:32;2.47;;;1.17;;
21979;SDS011;11154;48.558;9.234;2023-07-30T07:56:34;1.95;;;1.25;;
21979;SDS011;11154;48.558;9.234;2023-07-30T07:58:35;3.13;;;1.13;;
21979;SDS011;11154;48.558;9.234;2023-07-30T08:00:37;1.98;;;1.05;;
21979;SDS011;11154;48.558;9.234;2023-07-30T08:02:38;1.45;;;1.02;;
21979;SDS011;11154;48.558;9.234;2023-07-30T08:04:40;2.03;;;1.20;;
21979;SDS011;11154;48.558;9.234;2023-07-30T08:06:42;2.78;;;1.25;;
21979;SDS011;11154;48.558;9.234;2023-07-30T08:08:44;3.15;;;1.20;;
21979;SDS011;11154;48.558;9.234;2023-07-30T08:10:46;3.22;;;1.38;;
21979;SDS011;11154;48.558;9.234;2023-07-30T08:12:48;1.65;;;1.20;;
21979;SDS011;11154;48.558;9.234;2023-07-30T08:14:49;2.97;;;1.20;;
21979;SDS011;11154;48.558;9.234;2023-07-30T08:16:50;3.17;;;1.20;;
21979;SDS011;11154;48.558;9.234;2023-07-30T08:18:52;4.25;;;1.40;;
21979;SDS011;11154;48.558;9.234;2023-07-30T08:20:54;1.38;;;0.90;;
21979;SDS011;11154;48.558;9.234;2023-07-30T08:22:56;2.03;;;1.10;;
21979;SDS011;11154;48.558;9.234;2023-07-30T08:24:59;2.13;;;1.10;;
21979;SDS011;11154;48.558;9.234;2023-07-30T08:27:00;1.30;;;1.02;;
21979;SDS011;11154;48.558;9.234;2023-07-30T08:29:02;2.65;;;1.15;;
21979;SDS011;11154;48.558;9.234;2023-07-30T08:31:06;1.52;;;1.10;;
21979;SDS011;11154;48.558;9.234;2023-07-30T08:33:07;2.58;;;1.08;;
21979;SDS011;11154;48.558;9.234;2023-07-30T08:35:09;1.58;;;1.00;;
21979;SDS011;11154;48.558;9.234;2023-07-30T08:37:11;2.22;;;1.20;;
21979;SDS011;11154;48.558;9.234;2023-07-30T08:39:12;1.48;;;1.27;;
21979;SDS011;11154;48.558;9.234;2023-07-30T08:41:16;1.48;;;1.30;;
21979;SDS011;11154;48.558;9.234;2023-07-30T08:43:18;1.73;;;1.35;;
21979;SDS011;11154;48.558;9.234;2023-07-30T08:45:20;2.15;;;1.33;;
21979;SDS011;11154;48.558;9.234;2023-07-30T08:47:21;2.85;;;1.20;;
21979;SDS011;11154;48.558;9.234;2023-07-30T08:49:23;1.27;;;1.17;;
21979;SDS011;11154;48.558;9.234;2023-07-30T08:51:25;1.48;;;1.20;;
21979;SDS011;11154;48.558;9.234;2023-07-30T08:53:27;1.08;;;0.98;;
21979;SDS011;11154;48.558;9.234;2023-07-30T08:55:29;1.20;;;1.10;;
21979;SDS011;11154;48.558;9.234;2023-07-30T08:57:36;0.90;;;0.90;;
21979;SDS011;11154;48.558;9.234;2023-07-30T08:59:39;1.48;;;1.10;;
21979;SDS011;11154;48.558;9.234;2023-07-30T09:01:44;3.25;;;1.17;;
21979;SDS011;11154;48.558;9.234;2023-07-30T09:03:48;6.40;;;1.30;;
21979;SDS011;11154;48.558;9.234;2023-07-30T09:05:52;2.35;;;1.15;;
21979;SDS011;11154;48.558;9.234;2023-07-30T09:07:54;1.63;;;1.30;;
21979;SDS011;11154;48.558;9.234;2023-07-30T09:09:54;1.73;;;1.00;;
21979;SDS011;11154;48.558;9.234;2023-07-30T09:11:56;2.72;;;1.20;;
21979;SDS011;11154;48.558;9.234;2023-07-30T09:14:01;2.03;;;1.20;;
21979;SDS011;11154;48.558;9.234;2023-07-30T09:16:07;1.55;;;1.38;;
21979;SDS011;11154;48.558;9.234;2023-07-30T09:18:08;1.42;;;1.15;;
21979;SDS011;11154;48.558;9.234;2023-07-30T09:20:10;3.47;;;1.30;;
21979;SDS011;11154;48.558;9.234;2023-07-30T09:22:12;1.92;;;1.17;;
21979;SDS011;11154;48.558;9.234;2023-07-30T09:24:14;2.35;;;1.00;;
21979;SDS011;11154;48.558;9.234;2023-07-30T09:26:22;1.80;;;1.25;;
21979;SDS011;11154;48.558;9.234;2023-07-30T09:28:27;1.63;;;1.25;;
21979;SDS011;11154;48.558;9.234;2023-07-30T09:30:33;2.25;;;1.30;;
21979;SDS011;11154;48.558;9.234;2023-07-30T09:32:35;1.30;;;1.20;;
21979;SDS011;11154;48.558;9.234;2023-07-30T09:34:36;2.17;;;1.30;;
21979;SDS011;11154;48.558;9.234;2023-07-30T09:36:46;1.33;;;1.20;;
21979;SDS011;11154;48.558;9.234;2023-07-30T09:38:48;1.30;;;1.20;;
21979;SDS011;11154;48.558;9.234;2023-07-30T09:40:50;1.95;;;1.10;;
21979;SDS011;11154;48.558;9.234;2023-07-30T09:42:53;1.33;;;1.10;;
21979;SDS011;11154;48.558;9.234;2023-07-30T09:44:58;1.30;;;1.10;;
21979;SDS011;11154;48.558;9.234;2023-07-30T09:47:02;1.90;;;1.20;;
21979;SDS011;11154;48.558;9.234;2023-07-30T09:49:05;1.48;;;1.00;;
21979;SDS011;11154;48.558;9.234;2023-07-30T09:51:07;2.97;;;2.22;;
21979;SDS011;11154;48.558;9.234;2023-07-30T09:53:10;3.45;;;1.85;;
21979;SDS011;11154;48.558;9.234;2023-07-30T09:55:13;1.95;;;1.20;;
21979;SDS011;11154;48.558;9.234;2023-07-30T09:57:14;3.58;;;1.50;;
21979;SDS011;11154;48.558;9.234;2023-07-30T09:59:16;1.77;;;1.17;;
21979;SDS011;11154;48.558;9.234;2023-07-30T10:01:18;3.20;;;1.27;;
21979;SDS011;11154;48.558;9.234;2023-07-30T10:03:25;2.05;;;1.23;;
21979;SDS011;11154;48.558;9.234;2023-07-30T10:05:28;4.65;;;1.38;;
21979;SDS011;11154;48.558;9.234;2023-07-30T10:07:35;1.50;;;1.20;;
21979;SDS011;11154;48.558;9.234;2023-07-30T10:09:38;3.60;;;1.42;;
21979;SDS011;11154;48.558;9.234;2023-07-30T10:11:43;1.50;;;1.15;;
21979;SDS011;11154;48.558;9.234;2023-07-30T10:13:48;2.25;;;1.10;;
21979;SDS011;11154;48.558;9.234;2023-07-30T10:15:50;1.30;;;1.20;;
21979;SDS011;11154;48.558;9.234;2023-07-30T10:17:52;1.15;;;1.00;;
21979;SDS011;11154;48.558;9.234;2023-07-30T10:19:55;2.05;;;1.27;;
21979;SDS011;11154;48.558;9.234;2023-07-30T10:22:01;1.40;;;1.30;;
21979;SDS011;11154;48.558;9.234;2023-07-30T10:24:21;1.98;;;1.38;;
21979;SDS011;11154;48.558;9.234;2023-07-30T10:26:25;1.35;;;1.13;;
21979;SDS011;11154;48.558;9.234;2023-07-30T10:28:31;1.90;;;1.30;;
21979;SDS011;11154;48.558;9.234;2023-07-30T10:30:33;1.42;;;1.17;;
21979;SDS011;11154;48.558;9.234;2023-07-30T10:32:39;4.13;;;1.27;;
21979;SDS011;11154;48.558;9.234;2023-07-30T10:34:43;2.00;;;1.30;;
21979;SDS011;11154;48.558;9.234;2023-07-30T10:36:49;3.00;;;1.20;;
21979;SDS011;11154;48.558;9.234;2023-07-30T10:38:51;2.72;;;1.27;;
21979;SDS011;11154;48.558;9.234;2023-07-30T10:41:02;1.95;;;1.30;;
21979;SDS011;11154;48.558;9.234;2023-07-30T10:43:13;1.25;;;1.15;;
21979;SDS011;11154;48.558;9.234;2023-07-30T10:45:15;2.05;;;1.10;;
21979;SDS011;11154;48.558;9.234;2023-07-30T10:47:17;1.30;;;1.20;;
21979;SDS011;11154;48.558;9.234;2023-07-30T10:49:19;1.75;;;1.15;;
21979;SDS011;11154;48.558;9.234;2023-07-30T10:51:20;2.25;;;1.35;;
21979;SDS011;11154;48.558;9.234;2023-07-30T10:53:24;4.93;;;1.30;;
21979;SDS011;11154;48.558;9.234;2023-07-30T10:55:29;2.25;;;1.38;;
21979;SDS011;11154;48.558;9.234;2023-07-30T10:57:31;2.63;;;1.20;;
21979;SDS011;11154;48.558;9.234;2023-07-30T10:59:35;1.95;;;1.40;;
21979;SDS011;11154;48.558;9.234;2023-07-30T11:01:37;3.55;;;1.60;;
21979;SDS011;11154;48.558;9.234;2023-07-30T11:03:40;2.03;;;1.20;;
21979;SDS011;11154;48.558;9.234;2023-07-30T11:05:41;1.40;;;1.30;;
21979;SDS011;11154;48.558;9.234;2023-07-30T11:07:48;2.85;;;1.30;;
21979;SDS011;11154;48.558;9.234;2023-07-30T11:10:01;1.98;;;1.40;;
21979;SDS011;11154;48.558;9.234;2023-07-30T11:12:03;2.95;;;1.33;;
21979;SDS011;11154;48.558;9.234;2023-07-30T11:14:05;2.42;;;1.27;;
21979;SDS011;11154;48.558;9.234;2023-07-30T11:16:06;2.05;;;1.40;;
21979;SDS011;11154;48.558;9.234;2023-07-30T11:18:09;4.10;;;1.30;;
21979;SDS011;11154;48.558;9.234;2023-07-30T11:20:21;2.80;;;1.33;;
21979;SDS011;11154;48.558;9.234;2023-07-30T11:22:30;1.73;;;1.40;;
21979;SDS011;11154;48.558;9.234;2023-07-30T11:24:35;6.30;;;1.40;;
21979;SDS011;11154;48.558;9.234;2023-07-30T11:26:40;2.67;;;1.73;;
21979;SDS011;11154;48.558;9.234;2023-07-30T11:28:42;2.65;;;1.48;;
21979;SDS011;11154;48.558;9.234;2023-07-30T11:30:44;2.03;;;1.77;;
21979;SDS011;11154;48.558;9.234;2023-07-30T11:32:44;2.10;;;1.30;;
21979;SDS011;11154;48.558;9.234;2023-07-30T11:34:47;1.88;;;1.38;;
21979;SDS011;11154;48.558;9.234;2023-07-30T11:36:48;1.63;;;1.30;;
21979;SDS011;11154;48.558;9.234;2023-07-30T11:38:50;3.15;;;1.60;;
21979;SDS011;11154;48.558;9.234;2023-07-30T11:40:54;1.83;;;1.48;;
21979;SDS011;11154;48.558;9.234;2023-07-30T11:42:57;2.35;;;1.40;;
21979;SDS011;11154;48.558;9.234;2023-07-30T11:45:01;5.88;;;1.52;;
21979;SDS011;11154;48.558;9.234;2023-07-30T11:47:20;2.08;;;1.30;;
21979;SDS011;11154;48.558;9.234;2023-07-30T11:49:22;1.83;;;1.50;;
21979;SDS011;11154;48.558;9.234;2023-07-30T11:51:25;2.63;;;1.58;;
21979;SDS011;11154;48.558;9.234;2023-07-30T11:55:47;2.08;;;1.30;;
21979;SDS011;11154;48.558;9.234;2023-07-30T11:57:48;2.10;;;1.42;;
21979;SDS011;11154;48.558;9.234;2023-07-30T11:59:51;2.42;;;1.30;;
21979;SDS011;11154;48.558;9.234;2023-07-30T12:01:53;1.90;;;1.25;;
21979;SDS011;11154;48.558;9.234;2023-07-30T12:03:56;2.85;;;1.40;;
21979;SDS011;11154;48.558;9.234;2023-07-30T12:05:58;5.30;;;1.27;;
21979;SDS011;11154;48.558;9.234;2023-07-30T12:08:06;2.00;;;1.50;;
21979;SDS011;11154;48.558;9.234;2023-07-30T12:10:15;2.70;;;1.40;;
21979;SDS011;11154;48.558;9.234;2023-07-30T12:12:15;1.77;;;1.48;;
21979;SDS011;11154;48.558;9.234;2023-07-30T12:14:17;1.88;;;1.40;;
21979;SDS011;11154;48.558;9.234;2023-07-30T12:16:20;2.72;;;1.55;;
21979;SDS011;11154;48.558;9.234;2023-07-30T12:18:22;1.40;;;1.30;;
21979;SDS011;11154;48.558;9.234;2023-07-30T12:20:26;2.55;;;1.50;;